Time;durP1;ratioP1;P1;durP2;ratioP2;P2;SDS_P1;SDS_P2;PMS_P1;PMS_P2;Temp;Humidity;BMP_temperature;BMP_pressure;BME280_temperature;BME280_humidity;BME280_pressure;Samples;Min_cycle;Max_cycle;Signal;HPM_P1;HPM_P2
2023/05/14 00:01:53;;;;;;;26.60;12.37;;;;;;;12.53;52.66;101233.17;123861;1102;104296;-79
2023/05/14 00:04:22;;;;;;;25.97;11.57;;;;;;;12.50;52.63;101241.83;123920;1102;104718;-80
2023/05/14 00:06:51;;;;;;;24.67;11.20;;;;;;;12.45;52.97;101239.84;123843;1102;104358;-79
2023/05/14 00:09:19;;;;;;;24.10;11.77;;;;;;;12.40;52.99;101242.29;123710;1102;104709;-79
2023/05/14 00:11:48;;;;;;;26.60;12.37;;;;;;;12.33;53.10;101243.78;123771;1102;104360;-80
2023/05/14 00:14:16;;;;;;;26.77;12.37;;;;;;;12.27;53.51;101243.54;123716;1102;104287;-78
2023/05/14 00:16:45;;;;;;;25.10;11.37;;;;;;;12.21;53.46;101236.28;123750;1102;104268;-78
2023/05/14 00:19:13;;;;;;;26.07;13.17;;;;;;;12.14;54.17;101239.52;123611;1102;104357;-79
2023/05/14 00:21:42;;;;;;;25.50;12.27;;;;;;;12.04;54.06;101243.51;123631;1102;104459;-79
2023/05/14 00:24:10;;;;;;;25.67;11.83;;;;;;;11.95;54.19;101239.57;123582;1102;104759;-78
2023/05/14 00:26:39;;;;;;;27.33;12.53;;;;;;;11.87;54.69;101245.39;123583;1102;104290;-78
2023/05/14 00:29:07;;;;;;;25.15;11.05;;;;;;;11.78;55.14;101249.34;123578;1102;104238;-79
2023/05/14 00:31:36;;;;;;;27.27;11.47;;;;;;;11.66;55.43;101247.98;123559;1102;104334;-78
2023/05/14 00:34:04;;;;;;;23.37;11.53;;;;;;;11.58;55.54;101251.14;123537;1102;104507;-79
2023/05/14 00:36:33;;;;;;;29.40;12.37;;;;;;;11.53;55.43;101250.02;123603;1102;104320;-79
2023/05/14 00:39:02;;;;;;;24.30;12.03;;;;;;;11.46;55.73;101248.86;123769;1102;104245;-78
2023/05/14 00:41:31;;;;;;;26.23;11.73;;;;;;;11.41;56.32;101253.91;123534;1102;104329;-78
2023/05/14 00:43:59;;;;;;;26.30;12.27;;;;;;;11.36;55.80;101249.27;123590;1102;104265;-79
2023/05/14 00:46:28;;;;;;;26.07;11.67;;;;;;;11.30;55.99;101244.66;123634;1102;104248;-78
2023/05/14 00:48:57;;;;;;;26.03;11.67;;;;;;;11.25;56.32;101247.08;123685;1102;104299;-78
2023/05/14 00:51:26;;;;;;;25.10;12.83;;;;;;;11.21;56.39;101249.50;123705;1102;104226;-77
2023/05/14 00:53:55;;;;;;;23.97;11.57;;;;;;;11.19;56.96;101245.88;123685;1102;104268;-78
2023/05/14 00:56:24;;;;;;;27.07;12.50;;;;;;;11.16;56.51;101238.78;123713;1102;104322;-80
2023/05/14 00:58:53;;;;;;;23.60;11.13;;;;;;;11.15;56.31;101247.48;123873;1102;104217;-79
2023/05/14 01:01:21;;;;;;;21.87;11.47;;;;;;;11.13;56.59;101242.16;123716;1102;104460;-79
2023/05/14 01:03:52;;;;;;;22.70;11.63;;;;;;;11.06;56.94;101242.70;123678;1102;104472;-77
2023/05/14 01:06:28;;;;;;;24.07;11.10;;;;;;;10.99;56.95;101238.02;123558;1102;104284;-79
2023/05/14 01:09:05;;;;;;;22.63;11.53;;;;;;;10.91;58.25;101240.29;123488;1102;104705;-78
2023/05/14 01:11:41;;;;;;;23.50;11.50;;;;;;;10.84;57.65;101242.56;123540;1102;104329;-78
2023/05/14 01:14:17;;;;;;;22.73;10.77;;;;;;;10.76;57.75;101237.84;123592;1102;104328;-78
2023/05/14 01:16:47;;;;;;;23.80;11.47;;;;;;;10.73;57.87;101244.69;123534;1102;104326;-78
2023/05/14 01:19:26;;;;;;;22.20;11.50;;;;;;;10.69;57.66;101238.41;123648;1102;104182;-79
2023/05/14 01:21:55;;;;;;;23.37;11.30;;;;;;;10.67;58.46;101237.41;123571;1102;104294;-78
2023/05/14 01:24:23;;;;;;;22.13;10.93;;;;;;;10.65;58.07;101231.20;123573;1102;104265;-78
2023/05/14 01:26:55;;;;;;;22.80;10.83;;;;;;;10.67;57.94;101233.89;123806;1102;104272;-79
2023/05/14 01:29:26;;;;;;;23.03;10.97;;;;;;;10.69;58.02;101233.16;123808;1102;104357;-79
2023/05/14 01:31:59;;;;;;;21.83;11.20;;;;;;;10.69;58.09;101233.16;123873;1102;104294;-80
2023/05/14 01:34:30;;;;;;;22.80;11.57;;;;;;;10.71;58.00;101236.73;123940;1102;104296;-80
2023/05/14 01:37:00;;;;;;;23.13;10.60;;;;;;;10.68;58.01;101236.59;123933;1102;104411;-79
2023/05/14 01:39:30;;;;;;;24.47;11.03;;;;;;;10.67;58.31;101231.27;123859;1102;104334;-79
2023/05/14 01:42:01;;;;;;;24.10;11.00;;;;;;;10.65;58.41;101236.45;123888;1102;104616;-79
2023/05/14 01:44:30;;;;;;;25.07;10.70;;;;;;;10.63;58.38;101235.48;123753;1102;104304;-80
2023/05/14 01:47:00;;;;;;;20.83;10.60;;;;;;;10.63;59.27;101237.19;123875;1102;104443;-79
2023/05/14 01:49:28;;;;;;;23.37;10.83;;;;;;;10.59;59.16;101233.53;123766;1101;104373;-80
2023/05/14 01:51:57;;;;;;;23.10;11.73;;;;;;;10.54;58.57;101238.56;123749;1102;104323;-79
2023/05/14 01:54:26;;;;;;;24.20;11.63;;;;;;;10.52;59.63;101239.34;123698;1102;104348;-79
2023/05/14 01:56:54;;;;;;;24.27;11.30;;;;;;;10.50;59.97;101238.34;123817;1102;104293;-80
2023/05/14 01:59:23;;;;;;;25.63;11.00;;;;;;;10.47;59.09;101232.95;123829;1102;104248;-80
2023/05/14 02:01:51;;;;;;;25.00;11.65;;;;;;;10.43;59.26;101243.30;123757;1102;106976;-80
2023/05/14 02:04:20;;;;;;;26.33;12.47;;;;;;;10.39;60.18;101240.45;123889;1102;104616;-80
2023/05/14 02:06:48;;;;;;;24.43;12.17;;;;;;;10.32;60.20;101240.96;123671;1102;104357;-79
2023/05/14 02:09:17;;;;;;;26.10;12.00;;;;;;;10.26;59.50;101241.55;123774;1102;104433;-79
2023/05/14 02:11:45;;;;;;;25.20;12.20;;;;;;;10.21;60.42;101238.70;123823;1102;104165;-80
2023/05/14 02:14:14;;;;;;;24.77;11.70;;;;;;;10.19;60.38;101235.12;123642;1101;104257;-79
2023/05/14 02:16:43;;;;;;;25.23;12.00;;;;;;;10.17;60.56;101235.86;123875;1102;104319;-79
2023/05/14 02:19:11;;;;;;;23.63;12.77;;;;;;;10.14;60.51;101238.33;123647;1102;104226;-78
2023/05/14 02:21:39;;;;;;;24.90;12.37;;;;;;;10.15;59.87;101242.76;123938;1102;104211;-79
2023/05/14 02:24:08;;;;;;;23.90;12.37;;;;;;;10.18;60.58;101240.29;123806;1102;104296;-79
2023/05/14 02:26:37;;;;;;;23.27;12.03;;;;;;;10.20;60.64;101238.62;123849;1101;104360;-80
2023/05/14 02:29:05;;;;;;;22.53;11.33;;;;;;;10.23;60.14;101244.91;123842;1102;104277;-80
2023/05/14 02:31:34;;;;;;;24.30;11.23;;;;;;;10.26;60.41;101244.17;123891;1102;104344;-79
2023/05/14 02:34:03;;;;;;;24.13;11.10;;;;;;;10.26;60.26;101239.81;123785;1102;104335;-79
2023/05/14 02:36:32;;;;;;;23.13;11.80;;;;;;;10.24;60.66;101237.97;123949;1102;104284;-79
2023/05/14 02:39:00;;;;;;;23.90;11.40;;;;;;;10.17;60.96;101243.72;123810;1102;104291;-78
2023/05/14 02:41:29;;;;;;;24.27;11.10;;;;;;;10.12;60.79;101247.85;123993;1102;104271;-78
2023/05/14 02:43:57;;;;;;;21.37;11.00;;;;;;;10.06;61.07;101244.08;123682;1102;104342;-78
2023/05/14 02:46:27;;;;;;;23.43;11.43;;;;;;;10.00;61.31;101254.30;123673;1102;104238;-78
2023/05/14 02:48:56;;;;;;;21.40;11.30;;;;;;;9.95;62.18;101253.14;123776;1100;104399;-78
2023/05/14 02:51:25;;;;;;;24.87;11.10;;;;;;;9.90;61.46;101249.40;123540;1101;104245;-78
2023/05/14 02:53:54;;;;;;;21.20;10.70;;;;;;;9.86;61.56;101245.73;123797;1102;104389;-79
2023/05/14 02:56:23;;;;;;;24.70;11.10;;;;;;;9.84;61.54;101246.47;123736;1102;104325;-79
2023/05/14 02:58:51;;;;;;;23.50;10.83;;;;;;;9.84;62.01;101242.11;123756;1102;104223;-79
2023/05/14 03:01:20;;;;;;;23.43;11.00;;;;;;;9.84;62.24;101251.71;123657;1102;104380;-80
2023/05/14 03:03:49;;;;;;;23.87;11.43;;;;;;;9.83;62.33;101255.14;123661;1102;104382;-77
2023/05/14 03:06:17;;;;;;;25.17;11.67;;;;;;;9.83;62.48;101256.06;123634;1100;104271;-79
2023/05/14 03:08:46;;;;;;;22.47;11.27;;;;;;;9.80;61.92;101255.91;123584;1102;104274;-79
2023/05/14 03:11:14;;;;;;;21.73;11.33;;;;;;;9.82;61.99;101251.63;123647;1102;104283;-78
2023/05/14 03:13:42;;;;;;;23.97;12.47;;;;;;;9.85;62.99;101259.66;123673;1102;104281;-78
2023/05/14 03:19:49;;;;;;;22.73;11.20;;;;;;;9.93;62.82;101262.66;123796;1102;104318;-78
2023/05/14 03:22:18;;;;;;;23.23;11.20;;;;;;;10.04;62.77;101255.34;123636;1102;104251;-79
2023/05/14 03:24:46;;;;;;;22.93;10.43;;;;;;;10.09;63.27;101259.08;123867;1102;104315;-79
2023/05/14 03:27:15;;;;;;;23.63;10.87;;;;;;;10.07;63.03;101253.75;123814;1102;104190;-79
2023/05/14 03:29:43;;;;;;;22.20;10.73;;;;;;;10.06;64.08;101270.30;123882;1101;104281;-79
2023/05/14 03:32:12;;;;;;;22.57;10.30;;;;;;;10.07;64.13;101269.48;123680;1101;104205;-81
2023/05/14 03:34:40;;;;;;;24.27;10.40;;;;;;;10.06;63.89;101270.30;123614;1102;104269;-78
2023/05/14 03:37:09;;;;;;;20.13;9.83;;;;;;;10.08;64.00;101275.62;123761;1102;104169;-78
2023/05/14 03:39:38;;;;;;;22.00;10.57;;;;;;;10.07;64.29;101279.09;123666;1102;104354;-79
2023/05/14 03:42:06;;;;;;;20.67;10.43;;;;;;;10.08;63.52;101284.41;123804;1102;104402;-79
2023/05/14 03:44:35;;;;;;;22.57;10.57;;;;;;;10.14;63.82;101285.53;123785;1102;104676;-79
2023/05/14 03:47:05;;;;;;;21.80;9.75;;;;;;;10.22;64.00;101281.56;123815;1102;104300;-80
2023/05/14 03:49:34;;;;;;;21.60;9.70;;;;;;;10.30;63.84;101289.81;123678;1101;104280;-79
2023/05/14 03:52:03;;;;;;;20.73;10.57;;;;;;;10.31;63.59;101282.02;123740;1102;104412;-79
2023/05/14 03:54:31;;;;;;;23.70;10.63;;;;;;;10.36;64.09;101275.33;123599;1102;104335;-79
2023/05/14 03:57:01;;;;;;;20.40;9.63;;;;;;;10.42;63.72;101286.12;123766;1102;104393;-79
2023/05/14 03:59:30;;;;;;;20.17;10.13;;;;;;;10.47;63.41;101282.80;123812;1102;104197;-80
2023/05/14 04:01:58;;;;;;;24.53;9.87;;;;;;;10.52;63.81;101281.32;123838;1102;104277;-81
2023/05/14 04:04:27;;;;;;;19.47;10.33;;;;;;;10.52;63.63;101282.21;123851;1102;104265;-79
2023/05/14 04:06:56;;;;;;;19.93;9.83;;;;;;;10.55;64.20;101277.11;123956;1102;104619;-80
2023/05/14 04:09:25;;;;;;;21.83;9.47;;;;;;;10.59;63.63;101278.14;123862;1102;104251;-79
2023/05/14 04:11:53;;;;;;;22.20;10.63;;;;;;;10.67;63.88;101287.28;123782;1102;104305;-77
2023/05/14 04:14:22;;;;;;;21.83;9.60;;;;;;;10.74;63.84;101281.51;123778;1102;104319;-79
2023/05/14 04:16:51;;;;;;;21.73;9.37;;;;;;;10.83;64.24;101278.42;123987;1102;104144;-79
2023/05/14 04:19:19;;;;;;;17.97;9.37;;;;;;;10.93;64.09;101285.00;123831;1102;104239;-78
2023/05/14 04:21:48;;;;;;;19.60;9.70;;;;;;;10.99;63.95;101279.15;123832;1102;104296;-79
2023/05/14 04:24:17;;;;;;;20.60;9.33;;;;;;;11.07;64.13;101281.28;123711;1102;105851;-79
2023/05/14 04:26:45;;;;;;;21.47;9.50;;;;;;;11.14;64.06;101279.82;123886;1102;104162;-79
2023/05/14 04:29:14;;;;;;;21.77;9.53;;;;;;;11.18;64.34;101273.00;123793;1102;104361;-79
2023/05/14 04:31:44;;;;;;;20.00;9.17;;;;;;;11.25;63.79;101283.86;123949;1102;104473;-78
2023/05/14 04:34:12;;;;;;;18.53;8.40;;;;;;;11.30;63.80;101281.45;123671;1102;104239;-78
2023/05/14 04:36:41;;;;;;;20.00;8.60;;;;;;;11.40;64.03;101280.13;123670;1102;104255;-78
2023/05/14 04:39:11;;;;;;;16.93;8.67;;;;;;;11.44;64.11;101282.95;123758;1102;104344;-77
2023/05/14 04:41:45;;;;;;;19.73;9.20;;;;;;;11.47;63.80;101280.46;124033;1102;104242;-79
2023/05/14 04:44:15;;;;;;;19.53;8.93;;;;;;;11.53;64.03;101279.84;123590;1101;104331;-80
2023/05/14 04:46:44;;;;;;;20.53;8.67;;;;;;;11.61;63.65;101288.05;123741;1102;104268;-79
2023/05/14 04:49:12;;;;;;;20.33;9.07;;;;;;;11.67;63.79;101283.05;123672;1102;103088;-78
2023/05/14 04:51:41;;;;;;;18.87;8.23;;;;;;;11.72;63.40;101286.80;123761;1102;104264;-78
2023/05/14 04:54:10;;;;;;;17.50;8.60;;;;;;;11.80;63.65;101277.51;123478;1100;104296;-78
2023/05/14 04:56:39;;;;;;;16.50;8.03;;;;;;;11.89;63.55;101282.28;123590;1102;104441;-79
2023/05/14 04:59:07;;;;;;;18.77;8.70;;;;;;;11.98;63.42;101282.70;123555;1102;104315;-78
2023/05/14 05:01:36;;;;;;;16.97;8.00;;;;;;;12.06;63.40;101285.66;123631;1101;104216;-78
2023/05/14 05:04:05;;;;;;;16.37;7.70;;;;;;;12.16;63.46;101277.30;123622;1102;104298;-77
2023/05/14 05:06:33;;;;;;;17.57;8.93;;;;;;;12.26;63.34;101278.56;123741;1101;104275;-78
2023/05/14 05:09:02;;;;;;;19.80;8.27;;;;;;;12.34;63.51;101278.89;123643;1102;104262;-77
2023/05/14 05:11:30;;;;;;;16.83;7.90;;;;;;;12.41;63.33;101286.20;123748;1101;104323;-77
2023/05/14 05:13:59;;;;;;;15.60;8.07;;;;;;;12.48;63.21;101287.34;123630;1100;104264;-78
2023/05/14 05:16:27;;;;;;;17.37;7.77;;;;;;;12.57;63.30;101287.72;123650;1102;104325;-79
2023/05/14 05:18:56;;;;;;;19.03;7.80;;;;;;;12.66;63.41;101282.82;123813;1101;104334;-76
2023/05/14 05:21:25;;;;;;;15.17;7.57;;;;;;;12.76;63.09;101284.07;123712;1102;104358;-76
2023/05/14 05:23:53;;;;;;;18.87;8.20;;;;;;;12.87;63.06;101282.78;123679;1102;104274;-77
2023/05/14 05:26:22;;;;;;;15.63;7.80;;;;;;;12.96;63.04;101279.58;123721;1102;104198;-77
2023/05/14 05:28:50;;;;;;;19.40;8.10;;;;;;;13.08;63.11;101273.89;123739;1102;104271;-77
2023/05/14 05:31:19;;;;;;;17.87;7.73;;;;;;;13.20;63.10;101281.34;123805;1100;104312;-77
2023/05/14 05:33:47;;;;;;;17.90;7.33;;;;;;;13.28;62.62;101279.91;123752;1102;105713;-78
2023/05/14 05:36:16;;;;;;;19.53;7.13;;;;;;;13.39;62.87;101282.98;123724;1102;104296;-78
2023/05/14 05:38:44;;;;;;;15.50;7.27;;;;;;;13.51;62.25;101278.16;123586;1102;104354;-77
2023/05/14 05:41:13;;;;;;;18.03;7.10;;;;;;;13.63;62.49;101280.31;123833;1102;104268;-76
2023/05/14 05:43:41;;;;;;;15.90;7.00;;;;;;;13.76;62.49;101282.56;123782;1102;104284;-77
2023/05/14 05:46:10;;;;;;;13.55;6.80;;;;;;;13.90;62.67;101282.13;124012;1102;104345;-77
2023/05/14 05:48:38;;;;;;;13.77;6.63;;;;;;;14.00;62.06;101282.50;124008;1102;104255;-77
2023/05/14 05:51:07;;;;;;;16.27;7.03;;;;;;;14.13;61.68;101282.91;123921;1102;104226;-77
2023/05/14 05:53:35;;;;;;;13.20;6.07;;;;;;;14.25;61.72;101279.80;123971;1102;104230;-78
2023/05/14 05:56:05;;;;;;;15.90;6.83;;;;;;;14.36;61.94;101284.56;123803;1102;102112;-77
2023/05/14 05:58:33;;;;;;;16.47;6.90;;;;;;;14.49;61.71;101287.61;123896;1099;104518;-76
2023/05/14 06:01:02;;;;;;;13.93;6.70;;;;;;;14.61;61.37;101281.88;124004;1099;104271;-78
2023/05/14 06:03:30;;;;;;;13.63;6.57;;;;;;;14.75;60.76;101277.91;124050;1099;104686;-78
2023/05/14 06:05:59;;;;;;;16.57;6.23;;;;;;;14.89;60.53;101273.94;123810;1099;104238;-77
2023/05/14 06:08:27;;;;;;;13.60;5.40;;;;;;;15.04;60.40;101280.55;123647;1099;104287;-77
2023/05/14 06:10:56;;;;;;;18.47;6.73;;;;;;;15.18;60.29;101283.61;123676;1099;104342;-77
2023/05/14 06:13:24;;;;;;;13.13;5.67;;;;;;;15.34;60.55;101279.66;123792;1102;104275;-77
2023/05/14 06:15:53;;;;;;;13.80;5.40;;;;;;;15.49;60.23;101281.81;123781;1099;104319;-77
2023/05/14 06:18:21;;;;;;;13.43;5.47;;;;;;;15.61;59.45;101279.52;124129;1099;104245;-79
2023/05/14 06:20:50;;;;;;;13.90;5.73;;;;;;;15.74;59.14;101280.77;123762;1099;105202;-78
2023/05/14 06:23:18;;;;;;;10.40;5.03;;;;;;;15.87;58.94;101272.32;123815;1099;104319;-79
2023/05/14 06:25:48;;;;;;;13.30;5.43;;;;;;;16.01;58.47;101262.09;124135;1099;104277;-77
2023/05/14 06:28:17;;;;;;;11.17;5.20;;;;;;;16.15;58.30;101257.15;123720;1099;104335;-78
2023/05/14 06:30:45;;;;;;;11.10;4.93;;;;;;;16.26;57.86;101255.66;124047;1099;104300;-78
2023/05/14 06:33:14;;;;;;;11.83;5.00;;;;;;;16.40;58.02;101253.34;124149;1099;104223;-78
2023/05/14 06:35:42;;;;;;;10.97;4.97;;;;;;;16.53;57.55;101259.81;123684;1099;104226;-78
2023/05/14 06:38:11;;;;;;;11.47;4.93;;;;;;;16.66;57.59;101253.06;123751;1099;104217;-78
2023/05/14 06:40:39;;;;;;;12.50;5.23;;;;;;;16.81;57.45;101249.84;123641;1099;104313;-77
2023/05/14 06:43:08;;;;;;;10.37;5.10;;;;;;;16.97;56.80;101240.50;123667;1099;104252;-79
2023/05/14 06:45:36;;;;;;;11.20;5.10;;;;;;;17.09;56.91;101246.06;123616;1099;104367;-77
2023/05/14 06:48:05;;;;;;;11.77;5.23;;;;;;;17.21;56.43;101241.02;124024;1099;104377;-77
2023/05/14 06:50:33;;;;;;;10.27;5.13;;;;;;;17.37;55.78;101246.63;123658;1099;104262;-78
2023/05/14 06:53:02;;;;;;;13.30;5.47;;;;;;;17.57;55.66;101244.36;124165;1099;104253;-78
2023/05/14 06:55:30;;;;;;;11.90;5.10;;;;;;;17.75;55.61;101241.17;124040;1099;105482;-78
2023/05/14 06:57:59;;;;;;;10.30;4.55;;;;;;;17.85;55.15;101242.22;123899;1099;104354;-76
2023/05/14 07:00:28;;;;;;;10.47;5.13;;;;;;;17.99;54.83;101240.72;123822;1099;104427;-77
2023/05/14 07:02:56;;;;;;;12.60;5.07;;;;;;;18.14;54.93;101237.44;123772;1099;104268;-79
2023/05/14 07:05:25;;;;;;;11.40;5.00;;;;;;;18.30;54.83;101234.14;123730;1102;104466;-76
2023/05/14 07:07:54;;;;;;;11.17;4.97;;;;;;;18.53;54.32;101233.61;123753;1099;104274;-79
2023/05/14 07:10:22;;;;;;;11.00;4.87;;;;;;;18.79;53.50;101227.75;123738;1099;104238;-78
2023/05/14 07:12:51;;;;;;;8.25;4.40;;;;;;;18.95;53.04;101227.13;123473;1099;104402;-76
2023/05/14 07:15:20;;;;;;;11.00;5.27;;;;;;;19.18;52.75;101227.41;123535;1099;104281;-76
2023/05/14 07:17:48;;;;;;;10.97;4.20;;;;;;;19.47;51.04;101231.28;123612;1099;104345;-77
2023/05/14 07:20:17;;;;;;;7.97;4.40;;;;;;;19.61;51.08;101223.44;123473;1098;104357;-76
2023/05/14 07:22:45;;;;;;;9.63;4.33;;;;;;;19.79;51.16;101222.73;123497;1099;104368;-76
2023/05/14 07:25:14;;;;;;;10.63;4.50;;;;;;;19.92;50.74;101214.00;123323;1099;104322;-76
2023/05/14 07:27:42;;;;;;;10.10;4.67;;;;;;;20.00;49.97;101222.05;123622;1099;104255;-77
2023/05/14 07:30:12;;;;;;;12.77;4.97;;;;;;;20.21;50.14;101207.98;123691;1099;104227;-77
2023/05/14 07:32:40;;;;;;;11.00;4.50;;;;;;;20.48;48.77;101216.17;123685;1099;104315;-76
2023/05/14 07:35:10;;;;;;;8.10;4.23;;;;;;;20.63;49.36;101211.81;123504;1099;104255;-77
2023/05/14 07:37:39;;;;;;;7.93;4.07;;;;;;;20.75;49.77;101208.36;123371;1099;104469;-77
2023/05/14 07:40:09;;;;;;;8.97;4.13;;;;;;;20.95;48.96;101211.12;124018;1099;104277;-76
2023/05/14 07:42:38;;;;;;;7.40;3.90;;;;;;;21.05;46.58;101212.95;124005;1099;104355;-77
2023/05/14 07:45:09;;;;;;;8.13;4.00;;;;;;;21.13;47.34;101207.62;124005;1099;104245;-76
2023/05/14 07:47:38;;;;;;;9.53;4.00;;;;;;;21.25;46.82;101204.11;123698;1099;104332;-76
2023/05/14 07:50:09;;;;;;;9.20;4.50;;;;;;;21.40;45.59;101197.94;123588;1102;104270;-76
2023/05/14 07:52:36;;;;;;;8.73;4.03;;;;;;;;;;123941;1099;104217;-76
2023/05/14 07:55:06;;;;;;;10.10;4.37;;;;;;;21.70;45.79;101203.33;123586;1099;104239;-78
2023/05/14 07:57:35;;;;;;;10.10;4.40;;;;;;;21.93;45.16;101205.13;123676;1102;104268;-76
2023/05/14 08:00:06;;;;;;;9.40;3.93;;;;;;;22.10;45.22;101205.13;123983;1099;104300;-76
2023/05/14 08:02:41;;;;;;;6.77;4.23;;;;;;;22.21;43.93;101197.11;123919;1099;104325;-77
2023/05/14 08:05:10;;;;;;;7.73;4.10;;;;;;;22.21;43.16;101203.33;123802;1099;104233;-75
2023/05/14 08:07:38;;;;;;;9.97;4.10;;;;;;;22.33;42.45;101199.80;123670;1099;104243;-77
2023/05/14 08:10:09;;;;;;;7.60;4.07;;;;;;;22.47;42.92;101190.84;123532;1098;104249;-76
2023/05/14 08:12:38;;;;;;;6.40;3.77;;;;;;;22.65;42.49;101201.48;123556;1100;104293;-77
2023/05/14 08:15:09;;;;;;;10.73;3.60;;;;;;;22.77;42.22;101195.22;123539;1099;104348;-77
2023/05/14 08:17:37;;;;;;;7.53;3.23;;;;;;;22.87;41.07;101188.91;123681;1099;104739;-77
2023/05/14 08:20:10;;;;;;;5.70;3.30;;;;;;;23.10;40.45;101187.97;123828;1099;104615;-78
2023/05/14 08:22:39;;;;;;;8.95;3.50;;;;;;;23.37;39.83;101178.87;123952;1099;104341;-77
2023/05/14 08:25:08;;;;;;;5.03;3.20;;;;;;;23.49;39.84;101181.47;123515;1099;104322;-78
2023/05/14 08:27:37;;;;;;;7.87;3.50;;;;;;;23.44;38.30;101174.39;123713;1099;105576;-77
2023/05/14 08:30:07;;;;;;;7.77;3.27;;;;;;;23.48;38.56;101173.44;123515;1099;104239;-76
2023/05/14 08:32:37;;;;;;;6.50;3.40;;;;;;;23.47;38.70;101167.20;123675;1099;104175;-74
2023/05/14 08:35:07;;;;;;;5.63;3.33;;;;;;;23.50;37.83;101171.66;123673;1099;104198;-76
2023/05/14 08:37:35;;;;;;;6.10;3.10;;;;;;;23.55;37.99;101174.31;123526;1099;104287;-74
2023/05/14 08:40:07;;;;;;;6.23;3.10;;;;;;;23.62;37.15;101159.95;123932;1099;104176;-78
2023/05/14 08:42:40;;;;;;;6.13;3.10;;;;;;;23.55;35.83;101172.52;123893;1099;104271;-76
2023/05/14 08:45:15;;;;;;;7.53;3.25;;;;;;;23.57;36.31;101169.82;123766;1099;104271;-76
2023/05/14 08:47:46;;;;;;;5.07;3.43;;;;;;;23.68;36.33;101158.13;123880;1099;104325;-76
2023/05/14 08:50:15;;;;;;;5.77;3.40;;;;;;;23.86;35.78;101156.23;123572;1099;104249;-77
2023/05/14 08:52:44;;;;;;;7.23;3.40;;;;;;;23.94;35.52;101159.72;123649;1099;104348;-77
2023/05/14 08:55:13;;;;;;;7.53;3.43;;;;;;;23.96;35.57;101157.90;123618;1099;104239;-76
2023/05/14 08:57:41;;;;;;;7.80;3.50;;;;;;;23.97;35.20;101153.45;123643;1099;104239;-76
2023/05/14 09:00:13;;;;;;;5.27;3.20;;;;;;;24.01;35.21;101145.37;123644;1099;104194;-77
2023/05/14 09:02:44;;;;;;;8.00;3.87;;;;;;;24.12;34.50;101150.62;123753;1099;104323;-75
2023/05/14 09:05:14;;;;;;;6.57;3.70;;;;;;;24.25;34.27;101150.47;123791;1098;104390;-76
2023/05/14 09:07:43;;;;;;;7.17;3.37;;;;;;;24.33;33.92;101146.81;123599;1100;104245;-76
2023/05/14 09:10:11;;;;;;;5.70;3.50;;;;;;;24.37;33.63;101139.61;123701;1099;104265;-76
2023/05/14 09:12:40;;;;;;;8.40;3.47;;;;;;;24.37;33.90;101143.20;123740;1099;104248;-77
2023/05/14 09:15:09;;;;;;;9.93;3.40;;;;;;;24.32;33.79;101138.78;123661;1099;104344;-77
2023/05/14 09:17:38;;;;;;;4.87;3.20;;;;;;;24.42;33.13;101129.73;123515;1099;104498;-74
2023/05/14 09:20:11;;;;;;;7.57;3.63;;;;;;;24.64;32.90;101138.44;123856;1099;104268;-76
2023/05/14 09:22:40;;;;;;;9.30;3.40;;;;;;;24.86;31.65;101141.73;123400;1099;104281;-75
2023/05/14 09:25:11;;;;;;;6.33;3.30;;;;;;;24.94;31.49;101138.95;123848;1102;104223;-77
2023/05/14 09:27:39;;;;;;;6.73;3.67;;;;;;;24.86;30.99;101135.48;123757;1099;104268;-78
2023/05/14 09:30:10;;;;;;;7.10;3.45;;;;;;;24.86;32.24;101138.17;123581;1100;104434;-77
2023/05/14 09:32:42;;;;;;;8.23;3.47;;;;;;;24.78;31.49;101131.98;123842;1099;104325;-78
2023/05/14 09:35:15;;;;;;;6.70;3.27;;;;;;;24.85;31.61;101136.38;123854;1099;104300;-76
2023/05/14 09:37:46;;;;;;;8.57;3.37;;;;;;;25.00;30.94;101124.56;123664;1099;104206;-77
2023/05/14 09:40:16;;;;;;;4.87;3.40;;;;;;;25.16;31.03;101120.72;123688;1098;104271;-76
2023/05/14 09:42:46;;;;;;;6.63;3.30;;;;;;;25.30;30.60;101112.48;123699;1099;104171;-76
2023/05/14 09:45:15;;;;;;;6.43;3.53;;;;;;;25.42;30.07;101108.73;123613;1102;104326;-75
2023/05/14 09:47:44;;;;;;;4.30;2.97;;;;;;;25.62;30.32;101116.47;123604;1099;104217;-76
2023/05/14 09:50:12;;;;;;;5.07;3.10;;;;;;;25.68;29.73;101119.05;123691;1099;104239;-76
2023/05/14 09:52:41;;;;;;;6.70;3.50;;;;;;;25.70;30.01;101109.16;123800;1099;104242;-75
2023/05/14 09:55:10;;;;;;;10.60;3.97;;;;;;;25.73;29.57;101116.28;123709;1099;104351;-76
2023/05/14 09:57:39;;;;;;;5.27;3.40;;;;;;;25.65;29.54;101125.36;123550;1101;104351;-78
2023/05/14 10:00:11;;;;;;;6.37;3.47;;;;;;;25.61;29.65;101125.43;123550;1099;104705;-76
2023/05/14 10:02:42;;;;;;;5.33;3.30;;;;;;;25.44;29.08;101115.84;123598;1099;104188;-77
2023/05/14 10:05:12;;;;;;;6.43;3.43;;;;;;;25.32;28.86;101115.16;123867;1099;104272;-77
2023/05/14 10:07:44;;;;;;;8.13;3.20;;;;;;;25.30;28.76;101110.68;124038;1099;104246;-76
2023/05/14 10:10:16;;;;;;;5.27;3.20;;;;;;;25.45;28.45;101092.56;123733;1099;104229;-77
2023/05/14 10:12:50;;;;;;;6.25;3.20;;;;;;;25.62;28.88;101103.03;123503;1099;104226;-76
2023/05/14 10:15:26;;;;;;;8.63;3.20;;;;;;;25.76;28.69;101098.30;123501;1099;104341;-79
2023/05/14 10:18:00;;;;;;;7.53;3.40;;;;;;;25.81;27.69;101091.02;123588;1099;104195;-74
2023/05/14 10:20:30;;;;;;;4.83;3.07;;;;;;;25.91;28.14;101097.11;123530;1099;104380;-76
2023/05/14 10:23:00;;;;;;;8.83;3.40;;;;;;;25.94;27.86;101094.36;123729;1099;104223;-77
2023/05/14 10:25:29;;;;;;;6.80;3.40;;;;;;;25.91;27.62;101097.11;123724;1099;104268;-77
2023/05/14 10:27:58;;;;;;;8.33;3.50;;;;;;;25.88;28.06;101099.86;123646;1099;104234;-77
2023/05/14 10:30:27;;;;;;;5.13;3.40;;;;;;;25.94;28.12;101090.80;123691;1099;104267;-77
2023/05/14 10:33:17;;;;;;;8.73;3.20;;;;;;;26.07;27.94;101092.39;124000;1099;104352;-77
2023/05/14 10:35:55;;;;;;;8.00;3.70;;;;;;;26.16;27.82;101091.30;123840;1099;104239;-79
2023/05/14 10:38:26;;;;;;;5.17;3.20;;;;;;;26.24;27.79;101086.68;123682;1099;104233;-76
2023/05/14 10:40:58;;;;;;;5.43;3.13;;;;;;;26.30;27.36;101082.95;123587;1099;104293;-76
2023/05/14 10:43:29;;;;;;;6.57;3.17;;;;;;;26.24;26.72;101072.33;123560;1100;104239;-77
2023/05/14 10:45:59;;;;;;;8.70;3.37;;;;;;;26.29;26.47;101076.70;123656;1100;104268;-76
2023/05/14 10:48:28;;;;;;;6.47;2.90;;;;;;;26.39;26.70;101076.52;123575;1099;104309;-76
2023/05/14 10:50:57;;;;;;;6.80;3.30;;;;;;;26.39;26.48;101080.08;123515;1099;104354;-75
2023/05/14 10:53:36;;;;;;;6.13;3.20;;;;;;;26.49;26.23;101076.29;123799;1102;104433;-76
2023/05/14 10:56:07;;;;;;;6.60;3.30;;;;;;;26.54;26.13;101073.50;123857;1099;104274;-76
2023/05/14 10:58:38;;;;;;;5.25;3.33;;;;;;;26.55;26.24;101076.16;123604;1099;104255;-77
2023/05/14 11:01:09;;;;;;;8.17;2.97;;;;;;;26.53;25.88;101071.72;123613;1099;104268;-77
2023/05/14 11:03:43;;;;;;;5.90;3.30;;;;;;;26.59;26.31;101074.28;123578;1099;104278;-76
2023/05/14 11:06:13;;;;;;;6.73;3.40;;;;;;;26.33;25.54;101073.05;123845;1099;104271;-76
2023/05/14 11:08:43;;;;;;;6.93;3.20;;;;;;;26.00;25.96;101074.59;123960;1099;104281;-77
2023/05/14 11:11:12;;;;;;;8.37;3.10;;;;;;;25.64;25.22;101072.52;123359;1099;104389;-77
2023/05/14 11:13:42;;;;;;;8.73;3.17;;;;;;;25.34;25.71;101068.56;123586;1102;104268;-78
2023/05/14 11:16:11;;;;;;;8.57;3.33;;;;;;;25.09;25.53;101060.87;123734;1099;104197;-76